sensor_id;sensor_type;location;lat;lon;timestamp;pressure;altitude;pressure_sealevel;temperature;humidity
52949;BME280;38812;50.942;3.644;2022-08-19T00:00:18;100825.44;;;16.72;100.00
52949;BME280;38812;50.942;3.644;2022-08-19T00:02:44;100836.91;;;16.72;100.00
52949;BME280;38812;50.942;3.644;2022-08-19T00:05:11;100833.59;;;16.67;100.00
52949;BME280;38812;50.942;3.644;2022-08-19T00:07:37;100838.25;;;16.62;100.00
52949;BME280;38812;50.942;3.644;2022-08-19T00:10:06;100841.66;;;16.66;100.00
52949;BME280;38812;50.942;3.644;2022-08-19T00:12:32;100841.19;;;16.56;100.00
52949;BME280;38812;50.942;3.644;2022-08-19T00:14:58;100851.91;;;16.53;100.00
52949;BME280;38812;50.942;3.644;2022-08-19T00:17:23;100851.91;;;16.53;100.00
52949;BME280;38812;50.942;3.644;2022-08-19T00:19:49;100855.63;;;16.49;100.00
52949;BME280;38812;50.942;3.644;2022-08-19T00:22:14;100846.13;;;16.45;100.00
52949;BME280;38812;50.942;3.644;2022-08-19T00:24:40;100875.78;;;16.53;100.00
52949;BME280;38812;50.942;3.644;2022-08-19T00:27:08;100882.03;;;16.52;100.00
52949;BME280;38812;50.942;3.644;2022-08-19T00:29:33;100890.84;;;16.53;100.00
52949;BME280;38812;50.942;3.644;2022-08-19T00:31:59;100903.09;;;16.55;100.00
52949;BME280;38812;50.942;3.644;2022-08-19T00:34:25;100900.78;;;16.48;100.00
52949;BME280;38812;50.942;3.644;2022-08-19T00:36:53;100912.13;;;16.51;100.00
52949;BME280;38812;50.942;3.644;2022-08-19T00:39:19;100925.56;;;16.46;100.00
52949;BME280;38812;50.942;3.644;2022-08-19T00:41:45;100924.72;;;16.46;100.00
52949;BME280;38812;50.942;3.644;2022-08-19T00:46:42;100920.56;;;16.40;100.00
52949;BME280;38812;50.942;3.644;2022-08-19T00:49:12;100927.53;;;16.43;100.00
52949;BME280;38812;50.942;3.644;2022-08-19T00:51:41;100923.53;;;16.53;100.00
52949;BME280;38812;50.942;3.644;2022-08-19T00:54:08;100934.56;;;16.64;100.00
52949;BME280;38812;50.942;3.644;2022-08-19T00:56:34;100969.56;;;16.72;100.00
52949;BME280;38812;50.942;3.644;2022-08-19T00:59:01;100992.97;;;16.83;100.00
52949;BME280;38812;50.942;3.644;2022-08-19T01:01:27;100993.03;;;16.82;100.00
52949;BME280;38812;50.942;3.644;2022-08-19T01:03:52;100993.69;;;16.87;100.00
52949;BME280;38812;50.942;3.644;2022-08-19T01:06:18;101004.88;;;16.93;100.00
52949;BME280;38812;50.942;3.644;2022-08-19T01:08:44;101004.00;;;16.93;100.00
52949;BME280;38812;50.942;3.644;2022-08-19T01:11:09;101020.72;;;16.95;100.00
52949;BME280;38812;50.942;3.644;2022-08-19T01:13:35;101007.59;;;16.92;100.00
52949;BME280;38812;50.942;3.644;2022-08-19T01:16:11;101006.38;;;16.80;100.00
52949;BME280;38812;50.942;3.644;2022-08-19T01:18:39;101002.97;;;16.76;100.00
52949;BME280;38812;50.942;3.644;2022-08-19T01:21:10;100989.44;;;16.62;100.00
52949;BME280;38812;50.942;3.644;2022-08-19T01:23:41;100974.72;;;16.55;100.00
52949;BME280;38812;50.942;3.644;2022-08-19T01:26:18;100958.56;;;16.41;100.00
52949;BME280;38812;50.942;3.644;2022-08-19T01:28:46;100962.06;;;16.41;100.00
52949;BME280;38812;50.942;3.644;2022-08-19T01:31:17;100943.94;;;16.31;100.00
52949;BME280;38812;50.942;3.644;2022-08-19T01:33:44;100923.22;;;16.20;100.00
52949;BME280;38812;50.942;3.644;2022-08-19T01:36:12;100917.06;;;16.20;100.00
52949;BME280;38812;50.942;3.644;2022-08-19T01:38:42;100920.69;;;16.17;100.00
52949;BME280;38812;50.942;3.644;2022-08-19T01:41:10;100903.38;;;16.08;100.00
52949;BME280;38812;50.942;3.644;2022-08-19T01:43:35;100899.88;;;16.08;100.00
52949;BME280;38812;50.942;3.644;2022-08-19T01:46:02;100892.91;;;16.05;100.00
52949;BME280;38812;50.942;3.644;2022-08-19T01:48:36;100889.34;;;16.06;100.00
52949;BME280;38812;50.942;3.644;2022-08-19T01:51:02;100882.44;;;16.02;100.00
52949;BME280;38812;50.942;3.644;2022-08-19T01:53:28;100872.94;;;15.98;100.00
52949;BME280;38812;50.942;3.644;2022-08-19T01:55:54;100866.22;;;15.90;100.00
52949;BME280;38812;50.942;3.644;2022-08-19T01:58:23;100853.03;;;15.88;100.00
52949;BME280;38812;50.942;3.644;2022-08-19T02:00:50;100855.00;;;15.83;100.00
52949;BME280;38812;50.942;3.644;2022-08-19T02:03:16;100860.06;;;15.89;100.00
52949;BME280;38812;50.942;3.644;2022-08-19T02:05:43;100846.03;;;15.87;100.00
52949;BME280;38812;50.942;3.644;2022-08-19T02:08:10;100845.16;;;15.87;100.00
52949;BME280;38812;50.942;3.644;2022-08-19T02:10:40;100855.69;;;15.88;100.00
52949;BME280;38812;50.942;3.644;2022-08-19T02:13:06;100845.22;;;15.85;100.00
52949;BME280;38812;50.942;3.644;2022-08-19T02:15:32;100838.31;;;15.81;100.00
52949;BME280;38812;50.942;3.644;2022-08-19T02:17:57;100830.66;;;15.75;100.00
52949;BME280;38812;50.942;3.644;2022-08-19T02:20:23;100831.53;;;15.75;100.00
52949;BME280;38812;50.942;3.644;2022-08-19T02:22:49;100823.91;;;15.68;100.00
52949;BME280;38812;50.942;3.644;2022-08-19T02:25:14;100814.34;;;15.64;100.00
52949;BME280;38812;50.942;3.644;2022-08-19T02:27:41;100811.56;;;15.67;100.00
52949;BME280;38812;50.942;3.644;2022-08-19T02:30:09;100804.03;;;15.58;100.00
52949;BME280;38812;50.942;3.644;2022-08-19T02:32:35;100795.22;;;15.57;100.00
52949;BME280;38812;50.942;3.644;2022-08-19T02:35:01;100801.97;;;15.64;100.00
52949;BME280;38812;50.942;3.644;2022-08-19T02:37:26;100804.69;;;15.63;100.00
52949;BME280;38812;50.942;3.644;2022-08-19T02:40:11;100803.88;;;15.61;100.00
52949;BME280;38812;50.942;3.644;2022-08-19T02:42:36;100792.66;;;15.56;100.00
52949;BME280;38812;50.942;3.644;2022-08-19T02:45:03;100799.69;;;15.55;100.00
52949;BME280;38812;50.942;3.644;2022-08-19T02:47:28;100805.88;;;15.56;100.00
52949;BME280;38812;50.942;3.644;2022-08-19T02:49:53;100789.41;;;15.48;100.00
52949;BME280;38812;50.942;3.644;2022-08-19T02:52:19;100796.09;;;15.58;100.00
52949;BME280;38812;50.942;3.644;2022-08-19T02:54:44;100788.91;;;15.60;100.00
52949;BME280;38812;50.942;3.644;2022-08-19T02:57:09;100785.34;;;15.61;100.00
52949;BME280;38812;50.942;3.644;2022-08-19T02:59:35;100775.50;;;15.64;100.00
52949;BME280;38812;50.942;3.644;2022-08-19T03:02:00;100793.56;;;15.75;100.00
52949;BME280;38812;50.942;3.644;2022-08-19T03:04:26;100800.19;;;15.85;100.00
52949;BME280;38812;50.942;3.644;2022-08-19T03:06:52;100817.47;;;15.94;100.00
52949;BME280;38812;50.942;3.644;2022-08-19T03:09:19;100831.47;;;15.97;100.00
52949;BME280;38812;50.942;3.644;2022-08-19T03:11:44;100833.13;;;16.00;100.00
52949;BME280;38812;50.942;3.644;2022-08-19T03:14:11;100837.63;;;15.98;100.00
52949;BME280;38812;50.942;3.644;2022-08-19T03:16:46;100841.00;;;16.01;100.00
52949;BME280;38812;50.942;3.644;2022-08-19T03:19:12;100826.03;;;16.00;100.00
52949;BME280;38812;50.942;3.644;2022-08-19T03:21:38;100843.50;;;16.04;100.00
52949;BME280;38812;50.942;3.644;2022-08-19T03:24:08;100832.88;;;16.04;100.00
52949;BME280;38812;50.942;3.644;2022-08-19T03:26:38;100852.25;;;16.06;100.00
52949;BME280;38812;50.942;3.644;2022-08-19T03:29:05;100848.66;;;16.07;100.00
52949;BME280;38812;50.942;3.644;2022-08-19T03:31:30;100844.34;;;16.05;100.00
52949;BME280;38812;50.942;3.644;2022-08-19T03:33:56;100846.00;;;16.07;100.00
52949;BME280;38812;50.942;3.644;2022-08-19T03:36:24;100847.34;;;16.18;100.00
52949;BME280;38812;50.942;3.644;2022-08-19T03:38:56;100849.41;;;16.11;100.00
52949;BME280;38812;50.942;3.644;2022-08-19T03:41:27;100848.41;;;16.14;100.00
52949;BME280;38812;50.942;3.644;2022-08-19T03:43:54;100848.41;;;16.14;100.00
52949;BME280;38812;50.942;3.644;2022-08-19T03:46:22;100835.28;;;16.10;100.00
52949;BME280;38812;50.942;3.644;2022-08-19T03:48:50;100837.81;;;16.14;100.00
52949;BME280;38812;50.942;3.644;2022-08-19T03:51:28;100852.91;;;16.11;100.00
52949;BME280;38812;50.942;3.644;2022-08-19T03:53:56;100844.28;;;16.06;100.00
52949;BME280;38812;50.942;3.644;2022-08-19T03:56:21;100843.38;;;16.07;100.00
52949;BME280;38812;50.942;3.644;2022-08-19T03:58:47;100841.94;;;16.00;100.00
52949;BME280;38812;50.942;3.644;2022-08-19T04:01:16;100843.06;;;15.95;100.00
52949;BME280;38812;50.942;3.644;2022-08-19T04:03:43;100839.84;;;15.87;100.00
52949;BME280;38812;50.942;3.644;2022-08-19T04:06:14;100829.44;;;15.82;100.00
52949;BME280;38812;50.942;3.644;2022-08-19T04:08:40;100818.34;;;15.74;100.00
52949;BME280;38812;50.942;3.644;2022-08-19T04:11:13;100812.50;;;15.66;100.00
52949;BME280;38812;50.942;3.644;2022-08-19T04:13:39;100824.81;;;15.67;100.00
52949;BME280;38812;50.942;3.644;2022-08-19T04:16:06;100810.03;;;15.61;100.00
52949;BME280;38812;50.942;3.644;2022-08-19T04:18:33;100794.22;;;15.60;100.00
52949;BME280;38812;50.942;3.644;2022-08-19T04:20:58;100786.13;;;15.63;100.00
52949;BME280;38812;50.942;3.644;2022-08-19T04:23:24;100787.34;;;15.56;100.00
52949;BME280;38812;50.942;3.644;2022-08-19T04:25:49;100794.38;;;15.57;100.00
52949;BME280;38812;50.942;3.644;2022-08-19T04:28:15;100779.50;;;15.53;100.00
52949;BME280;38812;50.942;3.644;2022-08-19T04:30:46;100787.34;;;15.56;100.00
52949;BME280;38812;50.942;3.644;2022-08-19T04:33:14;100768.53;;;15.62;100.00
52949;BME280;38812;50.942;3.644;2022-08-19T04:35:43;100770.13;;;15.66;100.00
52949;BME280;38812;50.942;3.644;2022-08-19T04:38:10;100773.97;;;15.79;100.00
52949;BME280;38812;50.942;3.644;2022-08-19T04:40:45;100763.81;;;15.89;100.00
52949;BME280;38812;50.942;3.644;2022-08-19T04:43:32;100773.16;;;15.97;100.00
52949;BME280;38812;50.942;3.644;2022-08-19T04:45:58;100776.06;;;16.11;100.00
52949;BME280;38812;50.942;3.644;2022-08-19T04:48:24;100785.53;;;16.17;100.00
52949;BME280;38812;50.942;3.644;2022-08-19T04:50:53;100802.78;;;16.26;100.00
52949;BME280;38812;50.942;3.644;2022-08-19T04:53:31;100828.56;;;16.42;100.00
52949;BME280;38812;50.942;3.644;2022-08-19T04:55:58;100847.25;;;16.39;100.00
52949;BME280;38812;50.942;3.644;2022-08-19T04:58:24;100851.28;;;16.28;100.00
52949;BME280;38812;50.942;3.644;2022-08-19T05:00:51;100848.88;;;16.23;100.00
52949;BME280;38812;50.942;3.644;2022-08-19T05:03:17;100829.78;;;16.15;100.00
52949;BME280;38812;50.942;3.644;2022-08-19T05:05:46;100826.06;;;16.19;100.00
52949;BME280;38812;50.942;3.644;2022-08-19T05:08:15;100808.09;;;16.26;100.00
52949;BME280;38812;50.942;3.644;2022-08-19T05:10:51;100814.19;;;16.28;100.00
52949;BME280;38812;50.942;3.644;2022-08-19T05:13:18;100813.66;;;16.40;100.00
52949;BME280;38812;50.942;3.644;2022-08-19T05:15:45;100803.69;;;16.45;100.00
52949;BME280;38812;50.942;3.644;2022-08-19T05:18:18;100822.41;;;16.61;100.00
52949;BME280;38812;50.942;3.644;2022-08-19T05:21:06;100848.09;;;16.79;100.00
52949;BME280;38812;50.942;3.644;2022-08-19T05:23:51;100853.28;;;16.82;100.00
52949;BME280;38812;50.942;3.644;2022-08-19T05:26:16;100875.78;;;16.92;100.00
52949;BME280;38812;50.942;3.644;2022-08-19T05:28:41;100880.66;;;17.01;100.00
52949;BME280;38812;50.942;3.644;2022-08-19T05:31:07;100891.00;;;17.07;100.00
52949;BME280;38812;50.942;3.644;2022-08-19T05:33:32;100869.84;;;17.06;100.00
52949;BME280;38812;50.942;3.644;2022-08-19T05:35:58;100899.38;;;17.17;100.00
52949;BME280;38812;50.942;3.644;2022-08-19T05:38:23;100889.41;;;17.22;100.00
52949;BME280;38812;50.942;3.644;2022-08-19T05:40:49;100888.25;;;17.28;100.00
52949;BME280;38812;50.942;3.644;2022-08-19T05:43:14;100895.69;;;17.38;100.00
52949;BME280;38812;50.942;3.644;2022-08-19T05:45:43;100901.28;;;17.51;100.00
52949;BME280;38812;50.942;3.644;2022-08-19T05:48:10;100905.50;;;17.55;100.00
52949;BME280;38812;50.942;3.644;2022-08-19T05:50:37;100920.66;;;17.72;100.00
52949;BME280;38812;50.942;3.644;2022-08-19T05:53:04;100914.16;;;17.77;100.00
52949;BME280;38812;50.942;3.644;2022-08-19T05:55:30;100932.94;;;17.92;100.00
52949;BME280;38812;50.942;3.644;2022-08-19T05:57:56;100939.34;;;18.05;100.00
52949;BME280;38812;50.942;3.644;2022-08-19T06:00:21;100938.66;;;18.01;100.00
52949;BME280;38812;50.942;3.644;2022-08-19T06:02:48;100954.00;;;18.13;100.00
52949;BME280;38812;50.942;3.644;2022-08-19T06:05:13;100965.09;;;18.39;100.00
52949;BME280;38812;50.942;3.644;2022-08-19T06:07:39;100968.53;;;18.41;100.00
52949;BME280;38812;50.942;3.644;2022-08-19T06:10:06;100986.69;;;18.50;100.00
52949;BME280;38812;50.942;3.644;2022-08-19T06:12:33;101007.97;;;18.67;100.00
52949;BME280;38812;50.942;3.644;2022-08-19T06:15:02;101013.94;;;18.72;100.00
52949;BME280;38812;50.942;3.644;2022-08-19T06:17:29;101035.81;;;18.95;100.00
52949;BME280;38812;50.942;3.644;2022-08-19T06:19:55;101060.53;;;19.14;100.00
52949;BME280;38812;50.942;3.644;2022-08-19T06:22:21;101089.47;;;19.37;100.00
52949;BME280;38812;50.942;3.644;2022-08-19T06:24:46;101099.81;;;19.43;100.00
52949;BME280;38812;50.942;3.644;2022-08-19T06:27:12;101095.50;;;19.41;100.00
52949;BME280;38812;50.942;3.644;2022-08-19T06:29:37;101090.09;;;19.42;100.00
52949;BME280;38812;50.942;3.644;2022-08-19T06:32:03;101084.47;;;19.31;100.00
52949;BME280;38812;50.942;3.644;2022-08-19T06:34:31;101064.72;;;19.35;100.00
52949;BME280;38812;50.942;3.644;2022-08-19T06:36:57;101074.56;;;19.50;100.00
52949;BME280;38812;50.942;3.644;2022-08-19T06:39:28;101092.81;;;19.58;100.00
52949;BME280;38812;50.942;3.644;2022-08-19T06:41:58;101085.06;;;19.54;100.00
52949;BME280;38812;50.942;3.644;2022-08-19T06:44:25;101089.91;;;19.63;100.00
52949;BME280;38812;50.942;3.644;2022-08-19T06:46:51;101087.63;;;19.55;100.00
52949;BME280;38812;50.942;3.644;2022-08-19T06:49:18;101073.00;;;19.46;100.00
52949;BME280;38812;50.942;3.644;2022-08-19T06:51:45;101075.41;;;19.51;100.00
52949;BME280;38812;50.942;3.644;2022-08-19T06:54:18;101067.34;;;19.52;100.00
52949;BME280;38812;50.942;3.644;2022-08-19T06:56:44;101073.22;;;19.59;100.00
52949;BME280;38812;50.942;3.644;2022-08-19T06:59:19;101070.94;;;19.51;100.00
52949;BME280;38812;50.942;3.644;2022-08-19T07:01:49;101070.09;;;19.51;100.00
52949;BME280;38812;50.942;3.644;2022-08-19T07:04:17;101065.88;;;19.47;100.00
52949;BME280;38812;50.942;3.644;2022-08-19T07:06:44;101054.34;;;19.46;100.00
52949;BME280;38812;50.942;3.644;2022-08-19T07:09:13;101047.38;;;19.44;100.00
52949;BME280;38812;50.942;3.644;2022-08-19T07:11:44;101063.06;;;19.66;100.00
52949;BME280;38812;50.942;3.644;2022-08-19T07:14:10;101074.84;;;19.77;100.00
52949;BME280;38812;50.942;3.644;2022-08-19T07:16:35;101100.16;;;19.86;100.00
52949;BME280;38812;50.942;3.644;2022-08-19T07:19:00;101098.34;;;19.87;100.00
52949;BME280;38812;50.942;3.644;2022-08-19T07:21:27;101088.88;;;19.81;100.00
52949;BME280;38812;50.942;3.644;2022-08-19T07:23:54;101095.44;;;19.91;100.00
52949;BME280;38812;50.942;3.644;2022-08-19T07:26:24;101107.44;;;19.98;100.00
52949;BME280;38812;50.942;3.644;2022-08-19T07:28:50;101116.41;;;19.97;100.00
52949;BME280;38812;50.942;3.644;2022-08-19T07:31:18;101118.22;;;20.12;100.00
52949;BME280;38812;50.942;3.644;2022-08-19T07:33:44;101120.28;;;20.23;100.00
52949;BME280;38812;50.942;3.644;2022-08-19T07:36:12;101136.28;;;20.39;100.00
52949;BME280;38812;50.942;3.644;2022-08-19T07:38:39;101149.97;;;20.33;100.00
52949;BME280;38812;50.942;3.644;2022-08-19T07:41:07;101167.03;;;20.46;100.00
52949;BME280;38812;50.942;3.644;2022-08-19T07:43:32;101157.97;;;20.33;100.00
52949;BME280;38812;50.942;3.644;2022-08-19T07:45:58;101163.84;;;20.39;100.00
52949;BME280;38812;50.942;3.644;2022-08-19T07:48:25;101164.25;;;20.32;100.00
52949;BME280;38812;50.942;3.644;2022-08-19T07:50:53;101150.66;;;20.20;100.00
52949;BME280;38812;50.942;3.644;2022-08-19T07:53:19;101134.91;;;20.16;100.00
52949;BME280;38812;50.942;3.644;2022-08-19T07:55:45;101141.38;;;20.12;100.00
52949;BME280;38812;50.942;3.644;2022-08-19T07:58:15;101134.31;;;20.11;100.00
52949;BME280;38812;50.942;3.644;2022-08-19T08:00:42;101118.66;;;20.05;100.00
52949;BME280;38812;50.942;3.644;2022-08-19T08:03:10;101113.56;;;20.00;100.00
52949;BME280;38812;50.942;3.644;2022-08-19T08:05:36;101120.38;;;20.06;100.00
52949;BME280;38812;50.942;3.644;2022-08-19T08:08:20;101123.13;;;20.04;100.00
52949;BME280;38812;50.942;3.644;2022-08-19T08:11:05;101131.91;;;20.06;100.00
52949;BME280;38812;50.942;3.644;2022-08-19T08:13:31;101125.63;;;20.07;100.00
52949;BME280;38812;50.942;3.644;2022-08-19T08:15:58;101133.47;;;20.10;100.00
52949;BME280;38812;50.942;3.644;2022-08-19T08:18:24;101126.19;;;19.97;100.00
52949;BME280;38812;50.942;3.644;2022-08-19T08:20:50;101119.75;;;20.01;100.00
52949;BME280;38812;50.942;3.644;2022-08-19T08:23:15;101122.63;;;20.13;100.00
52949;BME280;38812;50.942;3.644;2022-08-19T08:25:56;101137.22;;;20.22;100.00
52949;BME280;38812;50.942;3.644;2022-08-19T08:28:22;101148.75;;;20.23;100.00
52949;BME280;38812;50.942;3.644;2022-08-19T08:30:49;101136.72;;;20.31;100.00
52949;BME280;38812;50.942;3.644;2022-08-19T08:33:20;101162.63;;;20.45;100.00
52949;BME280;38812;50.942;3.644;2022-08-19T08:35:46;101156.69;;;20.40;100.00
52949;BME280;38812;50.942;3.644;2022-08-19T08:38:13;101168.75;;;20.47;100.00
52949;BME280;38812;50.942;3.644;2022-08-19T08:43:31;101172.19;;;20.49;100.00
52949;BME280;38812;50.942;3.644;2022-08-19T08:46:19;101166.25;;;20.44;100.00
52949;BME280;38812;50.942;3.644;2022-08-19T08:48:49;101162.47;;;20.48;100.00
52949;BME280;38812;50.942;3.644;2022-08-19T08:51:44;101173.19;;;20.62;100.00
52949;BME280;38812;50.942;3.644;2022-08-19T08:54:10;101188.53;;;20.74;100.00
52949;BME280;38812;50.942;3.644;2022-08-19T08:56:41;101214.50;;;20.86;100.00
52949;BME280;38812;50.942;3.644;2022-08-19T08:59:16;101230.56;;;21.01;100.00
52949;BME280;38812;50.942;3.644;2022-08-19T09:01:44;101231.34;;;21.03;100.00
52949;BME280;38812;50.942;3.644;2022-08-19T09:04:10;101244.28;;;21.10;100.00
52949;BME280;38812;50.942;3.644;2022-08-19T09:06:52;101244.19;;;21.12;100.00
52949;BME280;38812;50.942;3.644;2022-08-19T09:09:30;101233.44;;;20.98;100.00
52949;BME280;38812;50.942;3.644;2022-08-19T09:17:10;101207.47;;;20.70;100.00
52949;BME280;38812;50.942;3.644;2022-08-19T09:19:51;101208.94;;;20.75;100.00
52949;BME280;38812;50.942;3.644;2022-08-19T09:22:18;101204.47;;;20.76;100.00
52949;BME280;38812;50.942;3.644;2022-08-19T09:24:46;101216.00;;;20.76;100.00
52949;BME280;38812;50.942;3.644;2022-08-19T09:27:12;101211.22;;;20.81;100.00
52949;BME280;38812;50.942;3.644;2022-08-19T09:29:37;101221.53;;;21.03;100.00
52949;BME280;38812;50.942;3.644;2022-08-19T09:32:02;101221.69;;;21.16;100.00
52949;BME280;38812;50.942;3.644;2022-08-19T09:34:28;101271.59;;;21.45;100.00
52949;BME280;38812;50.942;3.644;2022-08-19T09:36:54;101272.34;;;21.77;100.00
52949;BME280;38812;50.942;3.644;2022-08-19T09:39:23;101306.69;;;22.13;100.00
52949;BME280;38812;50.942;3.644;2022-08-19T09:41:48;101325.03;;;22.62;100.00
52949;BME280;38812;50.942;3.644;2022-08-19T09:44:15;101326.28;;;22.85;100.00
52949;BME280;38812;50.942;3.644;2022-08-19T09:46:41;101364.66;;;22.85;100.00
52949;BME280;38812;50.942;3.644;2022-08-19T09:49:06;101368.44;;;22.96;100.00
52949;BME280;38812;50.942;3.644;2022-08-19T09:51:32;101342.91;;;22.76;100.00
52949;BME280;38812;50.942;3.644;2022-08-19T09:54:01;101336.69;;;22.75;100.00
52949;BME280;38812;50.942;3.644;2022-08-19T09:56:28;101348.19;;;22.92;100.00
52949;BME280;38812;50.942;3.644;2022-08-19T09:58:53;101365.13;;;22.92;100.00
52949;BME280;38812;50.942;3.644;2022-08-19T10:01:21;101373.97;;;23.07;100.00
52949;BME280;38812;50.942;3.644;2022-08-19T10:03:53;101381.19;;;22.92;100.00
52949;BME280;38812;50.942;3.644;2022-08-19T10:06:20;101383.16;;;22.74;100.00
52949;BME280;38812;50.942;3.644;2022-08-19T10:08:46;101363.88;;;22.27;100.00
52949;BME280;38812;50.942;3.644;2022-08-19T10:11:13;101351.34;;;22.13;100.00
52949;BME280;38812;50.942;3.644;2022-08-19T10:13:41;101323.44;;;21.87;100.00
52949;BME280;38812;50.942;3.644;2022-08-19T10:16:10;101318.94;;;21.73;100.00
52949;BME280;38812;50.942;3.644;2022-08-19T10:18:36;101309.38;;;21.69;100.00
52949;BME280;38812;50.942;3.644;2022-08-19T10:21:15;101314.16;;;21.64;100.00
52949;BME280;38812;50.942;3.644;2022-08-19T10:23:43;101311.09;;;21.70;100.00
52949;BME280;38812;50.942;3.644;2022-08-19T10:26:15;101296.34;;;21.93;100.00
52949;BME280;38812;50.942;3.644;2022-08-19T10:28:41;101304.13;;;22.12;100.00
52949;BME280;38812;50.942;3.644;2022-08-19T10:31:09;101314.44;;;22.18;100.00
52949;BME280;38812;50.942;3.644;2022-08-19T10:33:36;101336.94;;;22.30;100.00
52949;BME280;38812;50.942;3.644;2022-08-19T10:36:08;101337.13;;;22.27;100.00
52949;BME280;38812;50.942;3.644;2022-08-19T10:38:35;101348.00;;;22.23;100.00
52949;BME280;38812;50.942;3.644;2022-08-19T10:41:16;101340.44;;;22.30;100.00
52949;BME280;38812;50.942;3.644;2022-08-19T10:43:41;101361.19;;;22.41;100.00
52949;BME280;38812;50.942;3.644;2022-08-19T10:46:09;101352.59;;;22.50;100.00
52949;BME280;38812;50.942;3.644;2022-08-19T10:48:36;101358.63;;;22.68;100.00
52949;BME280;38812;50.942;3.644;2022-08-19T10:51:02;101373.06;;;22.79;100.00
52949;BME280;38812;50.942;3.644;2022-08-19T10:53:47;101373.63;;;22.84;100.00
52949;BME280;38812;50.942;3.644;2022-08-19T10:56:13;101372.31;;;22.77;100.00
52949;BME280;38812;50.942;3.644;2022-08-19T10:58:58;101367.88;;;22.62;100.00
52949;BME280;38812;50.942;3.644;2022-08-19T11:01:24;101386.44;;;22.65;100.00
52949;BME280;38812;50.942;3.644;2022-08-19T11:03:50;101375.94;;;22.62;100.00
52949;BME280;38812;50.942;3.644;2022-08-19T11:06:15;101376.69;;;22.64;100.00
52949;BME280;38812;50.942;3.644;2022-08-19T11:08:41;101364.94;;;22.67;100.00
52949;BME280;38812;50.942;3.644;2022-08-19T11:11:11;101372.28;;;22.63;100.00
52949;BME280;38812;50.942;3.644;2022-08-19T11:13:39;101362.34;;;22.65;100.00
52949;BME280;38812;50.942;3.644;2022-08-19T11:18:30;101385.69;;;22.63;100.00
52949;BME280;38812;50.942;3.644;2022-08-19T11:21:08;101378.81;;;22.73;100.00
52949;BME280;38812;50.942;3.644;2022-08-19T11:23:34;101374.03;;;22.93;100.00
52949;BME280;38812;50.942;3.644;2022-08-19T11:25:59;101380.28;;;23.06;100.00
52949;BME280;38812;50.942;3.644;2022-08-19T11:28:26;101389.66;;;23.13;100.00
52949;BME280;38812;50.942;3.644;2022-08-19T11:30:51;101387.19;;;23.10;100.00
52949;BME280;38812;50.942;3.644;2022-08-19T11:33:17;101392.88;;;23.18;100.00
52949;BME280;38812;50.942;3.644;2022-08-19T11:35:43;101390.44;;;23.01;100.00
52949;BME280;38812;50.942;3.644;2022-08-19T11:38:08;101390.66;;;22.83;100.00
52949;BME280;38812;50.942;3.644;2022-08-19T11:40:34;101388.53;;;22.74;100.00
52949;BME280;38812;50.942;3.644;2022-08-19T11:42:59;101384.25;;;22.57;100.00
52949;BME280;38812;50.942;3.644;2022-08-19T11:45:26;101373.25;;;22.48;100.00
52949;BME280;38812;50.942;3.644;2022-08-19T11:47:53;101375.25;;;22.44;100.00
52949;BME280;38812;50.942;3.644;2022-08-19T11:50:19;101381.09;;;22.51;100.00
52949;BME280;38812;50.942;3.644;2022-08-19T11:52:46;101374.66;;;22.53;100.00
52949;BME280;38812;50.942;3.644;2022-08-19T11:55:12;101380.63;;;22.73;100.00
52949;BME280;38812;50.942;3.644;2022-08-19T11:57:38;101381.34;;;22.75;100.00
52949;BME280;38812;50.942;3.644;2022-08-19T12:00:06;101393.44;;;22.68;100.00
52949;BME280;38812;50.942;3.644;2022-08-19T12:02:32;101376.63;;;22.51;100.00
52949;BME280;38812;50.942;3.644;2022-08-19T12:04:58;101370.38;;;22.37;100.00
52949;BME280;38812;50.942;3.644;2022-08-19T12:07:23;101360.53;;;22.23;100.00
52949;BME280;38812;50.942;3.644;2022-08-19T12:09:49;101346.94;;;22.12;100.00
52949;BME280;38812;50.942;3.644;2022-08-19T12:12:15;101316.59;;;21.97;100.00
52949;BME280;38812;50.942;3.644;2022-08-19T12:14:41;101326.56;;;22.09;100.00
52949;BME280;38812;50.942;3.644;2022-08-19T12:17:06;101327.47;;;22.24;100.00
52949;BME280;38812;50.942;3.644;2022-08-19T12:19:36;101340.34;;;22.60;100.00
52949;BME280;38812;50.942;3.644;2022-08-19T12:22:01;101349.69;;;22.96;100.00
52949;BME280;38812;50.942;3.644;2022-08-19T12:24:31;101376.59;;;23.21;100.00
52949;BME280;38812;50.942;3.644;2022-08-19T12:26:57;101377.53;;;23.34;100.00
52949;BME280;38812;50.942;3.644;2022-08-19T12:29:24;101371.06;;;23.78;100.00
52949;BME280;38812;50.942;3.644;2022-08-19T12:31:55;101376.28;;;24.44;100.00
52949;BME280;38812;50.942;3.644;2022-08-19T12:34:27;101406.34;;;24.87;100.00
52949;BME280;38812;50.942;3.644;2022-08-19T12:37:00;101418.47;;;25.66;100.00
52949;BME280;38812;50.942;3.644;2022-08-19T12:39:26;101427.53;;;26.46;100.00
52949;BME280;38812;50.942;3.644;2022-08-19T12:41:51;101429.06;;;26.95;100.00
52949;BME280;38812;50.942;3.644;2022-08-19T12:44:17;101429.88;;;26.51;100.00
52949;BME280;38812;50.942;3.644;2022-08-19T12:46:43;101411.91;;;25.57;100.00
52949;BME280;38812;50.942;3.644;2022-08-19T12:49:08;101415.09;;;25.15;100.00
52949;BME280;38812;50.942;3.644;2022-08-19T12:51:33;101410.84;;;24.74;100.00
52949;BME280;38812;50.942;3.644;2022-08-19T12:53:59;101396.69;;;24.59;100.00
52949;BME280;38812;50.942;3.644;2022-08-19T12:56:24;101400.25;;;24.35;100.00